createdAt,value
2022-10-22T00:01:00.757Z,7.23
2022-10-22T00:03:27.324Z,6.63
2022-10-22T00:05:53.866Z,7.23
2022-10-22T00:08:20.424Z,7.40
2022-10-22T00:10:47.120Z,7.50
2022-10-22T00:13:13.969Z,6.57
2022-10-22T00:15:40.540Z,7.40
2022-10-22T00:18:07.096Z,7.40
2022-10-22T00:20:33.676Z,7.20
2022-10-22T00:23:00.231Z,7.10
2022-10-22T00:25:26.796Z,7.00
2022-10-22T00:27:53.318Z,6.60
2022-10-22T00:30:19.937Z,6.83
2022-10-22T00:32:46.516Z,7.53
2022-10-22T00:35:13.553Z,7.23
2022-10-22T00:37:40.109Z,7.20
2022-10-22T00:40:07.494Z,7.30
2022-10-22T00:42:34.102Z,7.20
2022-10-22T00:45:09.619Z,7.23
2022-10-22T00:47:43.050Z,6.90
2022-10-22T00:50:14.746Z,7.30
2022-10-22T00:52:41.838Z,7.10
2022-10-22T00:55:08.980Z,6.57
2022-10-22T00:57:36.488Z,6.90
2022-10-22T01:00:04.695Z,6.50
2022-10-22T01:02:39.253Z,6.63
2022-10-22T01:05:14.112Z,6.60
2022-10-22T01:07:51.977Z,7.10
2022-10-22T01:10:24.452Z,7.10
2022-10-22T01:12:57.004Z,7.07
2022-10-22T01:15:43.776Z,6.80
2022-10-22T01:18:10.633Z,6.63
2022-10-22T01:20:58.878Z,6.97
2022-10-22T01:23:46.822Z,6.60
2022-10-22T01:29:21.605Z,7.03
2022-10-22T01:32:10.091Z,7.23
2022-10-22T01:34:38.859Z,7.13
2022-10-22T01:37:05.449Z,6.63
2022-10-22T01:39:33.549Z,6.90
2022-10-22T01:42:00.114Z,7.00
2022-10-22T01:44:28.301Z,6.77
2022-10-22T01:47:02.033Z,7.00
2022-10-22T01:49:38.794Z,6.87
2022-10-22T01:52:26.581Z,6.60
2022-10-22T01:55:10.692Z,7.10
2022-10-22T01:58:03.445Z,7.13
2022-10-22T02:00:30.399Z,6.90
2022-10-22T02:03:13.955Z,6.90
2022-10-22T02:05:50.000Z,6.90
2022-10-22T02:08:23.768Z,7.20
2022-10-22T02:10:51.231Z,7.87
2022-10-22T02:13:25.119Z,6.97
2022-10-22T02:15:52.865Z,7.27
2022-10-22T02:18:24.629Z,7.30
2022-10-22T02:20:52.500Z,7.47
2022-10-22T02:23:20.600Z,7.33
2022-10-22T02:25:50.588Z,7.60
2022-10-22T02:28:25.111Z,6.70
2022-10-22T02:30:54.845Z,6.83
2022-10-22T02:33:29.004Z,7.60
2022-10-22T02:35:56.341Z,7.40
2022-10-22T02:38:24.156Z,7.60
2022-10-22T02:40:50.837Z,6.90
2022-10-22T02:43:18.361Z,7.40
2022-10-22T02:45:45.271Z,7.17
2022-10-22T02:48:11.933Z,7.50
2022-10-22T02:50:38.484Z,7.63
2022-10-22T02:53:05.029Z,7.20
2022-10-22T02:55:31.623Z,7.60
2022-10-22T02:57:58.186Z,7.50
2022-10-22T03:00:24.735Z,7.73
2022-10-22T03:02:51.321Z,7.70
2022-10-22T03:05:17.882Z,7.20
2022-10-22T03:07:44.573Z,7.30
2022-10-22T03:10:11.130Z,7.37
2022-10-22T03:12:37.705Z,7.33
2022-10-22T03:15:04.716Z,7.53
2022-10-22T03:17:31.249Z,7.83
2022-10-22T03:19:57.764Z,7.83
2022-10-22T03:22:27.438Z,6.93
2022-10-22T03:24:57.644Z,7.63
2022-10-22T03:27:24.645Z,7.57
2022-10-22T03:29:52.652Z,7.53
2022-10-22T03:32:19.744Z,7.43
2022-10-22T03:34:46.279Z,7.80
2022-10-22T03:37:13.449Z,7.73
2022-10-22T03:39:40.133Z,7.27
2022-10-22T03:42:07.756Z,7.60
2022-10-22T03:44:36.556Z,7.03
2022-10-22T03:47:03.105Z,8.03
2022-10-22T03:49:29.754Z,7.33
2022-10-22T03:51:56.285Z,7.40
2022-10-22T03:54:22.802Z,7.10
2022-10-22T03:56:49.372Z,7.43
2022-10-22T03:59:16.155Z,7.70
2022-10-22T04:01:42.693Z,7.93
2022-10-22T04:04:09.200Z,7.73
2022-10-22T04:06:35.710Z,7.20
2022-10-22T04:09:02.654Z,7.67
2022-10-22T04:11:29.320Z,7.47
2022-10-22T04:13:55.855Z,7.50
2022-10-22T04:16:25.120Z,7.73
2022-10-22T04:18:54.097Z,7.40
2022-10-22T04:21:21.333Z,7.97
2022-10-22T04:23:50.293Z,8.83
2022-10-22T04:26:17.798Z,8.90
2022-10-22T04:28:45.617Z,8.93
2022-10-22T04:31:18.292Z,8.77
2022-10-22T04:33:45.610Z,8.43
2022-10-22T04:36:15.644Z,8.20
2022-10-22T04:38:43.760Z,10.37
2022-10-22T04:41:18.757Z,11.00
2022-10-22T04:43:46.437Z,10.13
2022-10-22T04:46:13.763Z,9.17
2022-10-22T04:48:42.281Z,9.17
2022-10-22T04:51:10.993Z,9.17
2022-10-22T04:53:38.062Z,9.00
2022-10-22T04:56:13.023Z,8.40
2022-10-22T04:58:40.822Z,8.23
2022-10-22T05:01:16.363Z,8.73
2022-10-22T05:03:43.379Z,8.07
2022-10-22T05:06:10.852Z,8.27
2022-10-22T05:08:37.489Z,8.33
2022-10-22T05:11:19.067Z,8.37
2022-10-22T05:13:45.973Z,9.60
2022-10-22T05:16:12.873Z,11.33
2022-10-22T05:18:41.825Z,10.80
2022-10-22T05:21:10.449Z,10.07
2022-10-22T05:23:37.085Z,9.40
2022-10-22T05:26:05.004Z,9.57
2022-10-22T05:28:31.617Z,9.87
2022-10-22T05:30:59.365Z,12.20
2022-10-22T05:33:27.006Z,9.73
2022-10-22T05:35:53.702Z,8.70
2022-10-22T05:38:20.442Z,8.57
2022-10-22T05:40:47.022Z,9.00
2022-10-22T05:43:13.635Z,9.00
2022-10-22T05:45:41.309Z,8.53
2022-10-22T05:48:09.664Z,8.47
2022-10-22T05:50:37.344Z,9.07
2022-10-22T05:53:05.468Z,8.67
2022-10-22T05:55:40.670Z,8.67
2022-10-22T05:58:08.109Z,8.80
2022-10-22T06:00:34.766Z,8.30
2022-10-22T06:03:01.369Z,8.77
2022-10-22T06:05:27.879Z,8.90
2022-10-22T06:07:54.539Z,8.17
2022-10-22T06:10:21.592Z,8.83
2022-10-22T06:12:48.535Z,8.60
2022-10-22T06:15:16.847Z,8.50
2022-10-22T06:17:47.429Z,8.50
2022-10-22T06:20:14.623Z,8.57
2022-10-22T06:22:41.351Z,9.07
2022-10-22T06:25:11.612Z,8.57
2022-10-22T06:28:04.164Z,8.67
2022-10-22T06:30:37.148Z,8.60
2022-10-22T06:33:13.656Z,8.70
2022-10-22T06:35:45.927Z,9.00
2022-10-22T06:39:01.039Z,9.60
2022-10-22T06:41:33.285Z,9.93
2022-10-22T06:44:04.937Z,9.60
2022-10-22T06:49:50.180Z,10.00
2022-10-22T06:52:28.084Z,10.07
2022-10-22T06:55:04.711Z,9.73
2022-10-22T06:57:43.822Z,9.90
2022-10-22T07:15:59.046Z,10.10
2022-10-22T07:18:25.690Z,10.00
2022-10-22T08:15:47.091Z,9.97
2022-10-22T08:18:13.743Z,9.73
2022-10-22T08:20:41.119Z,9.90
2022-10-22T08:23:07.833Z,10.23
2022-10-22T08:25:34.451Z,10.00
2022-10-22T08:28:01.149Z,10.77
2022-10-22T08:30:29.740Z,10.23
2022-10-22T08:32:56.721Z,10.27
2022-10-22T08:35:23.314Z,10.07
2022-10-22T08:37:49.946Z,10.53
2022-10-22T08:40:30.690Z,10.10
2022-10-22T08:43:04.969Z,9.87
2022-10-22T08:45:41.532Z,10.10
2022-10-22T08:48:25.481Z,14.43
2022-10-22T08:50:54.844Z,13.90
2022-10-22T08:53:27.369Z,16.97
2022-10-22T08:55:54.359Z,12.93
2022-10-22T08:58:20.918Z,10.30
2022-10-22T09:01:06.773Z,10.70
2022-10-22T09:03:48.670Z,10.53
2022-10-22T09:06:18.968Z,10.60
2022-10-22T09:08:46.884Z,10.73
2022-10-22T09:11:13.377Z,10.83
2022-10-22T09:13:41.566Z,10.63
2022-10-22T09:16:57.147Z,10.63
2022-10-22T09:20:14.553Z,10.57
2022-10-22T09:22:47.898Z,10.37
2022-10-22T09:25:19.363Z,10.77
2022-10-22T09:27:46.103Z,10.17
2022-10-22T09:30:17.852Z,11.13
2022-10-22T09:32:44.613Z,10.33
2022-10-22T09:35:14.205Z,11.10
2022-10-22T09:37:53.395Z,12.23
2022-10-22T09:40:20.266Z,11.13
2022-10-22T09:42:47.753Z,11.30
2022-10-22T09:45:25.788Z,13.13
2022-10-22T09:48:10.723Z,11.60
2022-10-22T09:50:42.756Z,11.13
2022-10-22T09:53:29.183Z,12.53
2022-10-22T09:55:59.309Z,16.40
2022-10-22T09:58:26.758Z,14.60
2022-10-22T10:01:01.254Z,13.00
2022-10-22T10:03:31.374Z,13.03
2022-10-22T10:06:02.998Z,13.33
2022-10-22T10:08:32.627Z,13.27
2022-10-22T10:11:11.234Z,14.60
2022-10-22T10:13:48.447Z,16.67
2022-10-22T10:16:32.989Z,14.80
2022-10-22T10:19:09.650Z,13.67
2022-10-22T10:21:49.573Z,13.80
2022-10-22T10:24:26.543Z,13.73
2022-10-22T10:27:05.719Z,15.03
2022-10-22T10:30:01.326Z,14.93
2022-10-22T10:32:48.269Z,15.57
2022-10-22T10:35:45.933Z,12.77
2022-10-22T10:38:18.470Z,12.93
2022-10-22T10:40:50.178Z,12.33
2022-10-22T10:43:33.534Z,12.83
2022-10-22T10:46:24.845Z,12.07
2022-10-22T10:49:18.825Z,12.07
2022-10-22T10:51:52.618Z,11.83
2022-10-22T10:54:25.565Z,11.77
2022-10-22T10:56:55.367Z,12.40
2022-10-22T10:59:40.670Z,12.10
2022-10-22T11:02:19.216Z,12.20
2022-10-22T11:05:07.511Z,12.40
2022-10-22T11:07:42.465Z,12.17
2022-10-22T11:10:19.982Z,12.40
2022-10-22T11:12:51.487Z,11.47
2022-10-22T11:15:34.789Z,12.73
2022-10-22T11:18:08.317Z,12.50
2022-10-22T11:20:42.784Z,12.30
2022-10-22T11:23:19.913Z,12.60
2022-10-22T11:25:49.334Z,12.60
2022-10-22T11:28:29.274Z,13.00
2022-10-22T11:31:04.849Z,12.40
2022-10-22T11:33:41.389Z,12.03
2022-10-22T11:36:10.670Z,11.67
2022-10-22T11:38:38.273Z,12.57
2022-10-22T11:41:13.949Z,11.93
2022-10-22T11:44:09.335Z,11.33
2022-10-22T11:46:40.760Z,11.60
2022-10-22T11:49:13.396Z,12.10
2022-10-22T11:51:41.964Z,11.50
2022-10-22T11:54:54.109Z,11.77
2022-10-22T11:57:41.325Z,12.23
2022-10-22T12:00:41.090Z,12.40
2022-10-22T12:03:40.409Z,11.83
2022-10-22T12:06:12.851Z,11.37
2022-10-22T12:08:47.005Z,11.97
2022-10-22T12:11:26.122Z,16.67
2022-10-22T12:13:58.869Z,13.60
2022-10-22T12:16:56.274Z,13.03
2022-10-22T12:19:23.375Z,12.40
2022-10-22T12:22:08.098Z,13.03
2022-10-22T12:24:37.590Z,12.93
2022-10-22T12:27:04.434Z,13.27
2022-10-22T12:29:32.620Z,13.83
2022-10-22T12:32:03.549Z,21.50
2022-10-22T12:34:30.208Z,14.90
2022-10-22T12:36:56.754Z,14.53
2022-10-22T12:39:26.750Z,13.60
2022-10-22T12:41:54.278Z,14.07
2022-10-22T12:44:20.874Z,13.93
2022-10-22T12:46:51.736Z,14.13
2022-10-22T12:49:22.726Z,15.20
2022-10-22T12:51:49.557Z,13.77
2022-10-22T12:54:26.014Z,14.03
2022-10-22T12:56:53.934Z,14.20
2022-10-22T12:59:25.956Z,14.60
2022-10-22T13:01:53.203Z,29.77
2022-10-22T13:04:35.771Z,24.03
2022-10-22T13:07:16.954Z,19.33
2022-10-22T13:09:55.428Z,16.53
2022-10-22T13:12:35.797Z,15.83
2022-10-22T13:15:21.261Z,17.00
2022-10-22T13:17:51.140Z,19.27
2022-10-22T13:20:21.404Z,17.30
2022-10-22T13:23:02.778Z,16.63
2022-10-22T13:25:38.617Z,19.13
2022-10-22T13:28:22.004Z,17.83
2022-10-22T13:30:54.963Z,18.50
2022-10-22T13:33:27.623Z,17.83
2022-10-22T13:35:55.662Z,16.70
2022-10-22T13:38:24.958Z,15.90
2022-10-22T13:40:51.663Z,17.07
2022-10-22T13:43:19.118Z,27.60
2022-10-22T13:45:47.599Z,52.67
2022-10-22T13:48:16.622Z,25.70
2022-10-22T13:50:43.255Z,20.37
2022-10-22T13:53:18.857Z,14.00
2022-10-22T13:55:45.805Z,10.73
2022-10-22T13:58:15.169Z,26.23
2022-10-22T14:00:44.085Z,19.63
2022-10-22T14:03:13.783Z,29.33
2022-10-22T14:05:40.356Z,10.07
2022-10-22T14:08:15.433Z,14.23
2022-10-22T14:10:41.996Z,16.07
2022-10-22T14:13:16.109Z,18.07
2022-10-22T14:15:43.542Z,6.20
2022-10-22T14:18:13.163Z,6.50
2022-10-22T14:20:42.017Z,5.17
2022-10-22T14:23:19.344Z,2.20
2022-10-22T14:25:46.758Z,2.70
2022-10-22T14:28:13.890Z,2.17
2022-10-22T14:30:41.111Z,1.90
2022-10-22T14:33:32.424Z,2.50
2022-10-22T14:36:00.313Z,4.13
2022-10-22T14:38:27.493Z,3.60
2022-10-22T14:40:54.399Z,4.17
2022-10-22T14:43:22.455Z,5.30
2022-10-22T14:45:49.461Z,6.10
2022-10-22T14:48:16.322Z,6.53
2022-10-22T14:50:44.291Z,8.50
2022-10-22T14:53:11.400Z,10.03
2022-10-22T14:55:38.057Z,14.10
2022-10-22T14:58:04.713Z,16.67
2022-10-22T15:00:31.340Z,16.47
2022-10-22T15:03:03.281Z,18.30
2022-10-22T15:05:31.004Z,15.17
2022-10-22T15:07:59.191Z,17.70
2022-10-22T15:10:26.450Z,18.47
2022-10-22T15:12:53.194Z,15.60
2022-10-22T15:15:22.631Z,17.23
2022-10-22T15:17:49.864Z,19.13
2022-10-22T15:20:16.502Z,21.93
2022-10-22T15:22:43.449Z,23.67
2022-10-22T15:25:10.342Z,22.53
2022-10-22T15:27:36.934Z,19.97
2022-10-22T15:30:05.000Z,19.30
2022-10-22T15:32:33.544Z,22.63
2022-10-22T15:35:01.452Z,21.30
2022-10-22T15:37:28.043Z,20.10
2022-10-22T15:39:54.610Z,18.83
2022-10-22T15:42:21.234Z,18.47
2022-10-22T15:44:47.787Z,18.93
2022-10-22T15:47:14.371Z,19.70
2022-10-22T15:49:41.853Z,22.30
2022-10-22T15:52:09.127Z,22.03
2022-10-22T15:54:36.372Z,20.60
2022-10-22T15:57:05.811Z,20.57
2022-10-22T15:59:33.147Z,18.80
2022-10-22T16:01:59.717Z,18.07
2022-10-22T16:04:26.261Z,19.53
2022-10-22T16:06:53.707Z,18.93
2022-10-22T16:09:23.378Z,18.50
2022-10-22T16:11:50.925Z,18.67
2022-10-22T16:14:19.835Z,18.50
2022-10-22T16:16:49.344Z,18.33
2022-10-22T16:19:17.406Z,20.10
2022-10-22T16:21:44.859Z,20.23
2022-10-22T16:24:11.951Z,19.87
2022-10-22T16:26:38.608Z,20.00
2022-10-22T16:29:05.620Z,20.60
2022-10-22T16:31:32.207Z,20.67
2022-10-22T16:33:58.763Z,20.43
2022-10-22T16:36:25.407Z,20.10
2022-10-22T16:38:52.055Z,20.27
2022-10-22T16:41:23.576Z,20.57
2022-10-22T16:43:52.486Z,22.07
2022-10-22T16:46:20.505Z,20.80
2022-10-22T16:48:51.960Z,22.40
2022-10-22T16:51:24.321Z,32.60
2022-10-22T16:53:52.403Z,38.33
2022-10-22T16:56:19.841Z,45.07
2022-10-22T16:58:51.865Z,40.00
2022-10-22T17:01:20.560Z,34.27
2022-10-22T17:03:47.494Z,29.00
2022-10-22T17:06:14.699Z,24.73
2022-10-22T17:08:41.787Z,24.20
2022-10-22T17:11:09.870Z,26.47
2022-10-22T17:13:36.939Z,30.27
2022-10-22T17:16:08.923Z,28.70
2022-10-22T17:18:37.281Z,25.93
2022-10-22T17:21:04.919Z,25.03
2022-10-22T17:23:31.524Z,25.33
2022-10-22T17:26:00.095Z,23.63
2022-10-22T17:28:26.959Z,23.03
2022-10-22T17:31:07.847Z,24.13
2022-10-22T17:33:35.509Z,23.07
2022-10-22T17:36:05.434Z,23.70
2022-10-22T17:38:32.088Z,25.07
2022-10-22T17:41:01.636Z,24.93
2022-10-22T17:43:30.551Z,23.63
2022-10-22T17:46:08.811Z,26.03
2022-10-22T17:48:35.455Z,24.83
2022-10-22T17:51:08.931Z,27.17
2022-10-22T17:53:36.138Z,27.80
2022-10-22T17:56:06.942Z,26.27
2022-10-22T17:58:33.643Z,26.87
2022-10-22T18:01:00.260Z,27.27
2022-10-22T18:03:27.991Z,28.17
2022-10-22T18:05:55.786Z,27.20
2022-10-22T18:08:24.153Z,28.37
2022-10-22T18:10:50.745Z,27.13
2022-10-22T18:13:17.432Z,27.23
2022-10-22T18:15:44.028Z,26.50
2022-10-22T18:18:13.462Z,25.10
2022-10-22T18:20:40.049Z,22.90
2022-10-22T18:23:06.766Z,18.33
2022-10-22T18:25:33.413Z,21.27
2022-10-22T18:28:00.066Z,20.37
2022-10-22T18:30:26.667Z,19.60
2022-10-22T18:32:53.388Z,16.67
2022-10-22T18:35:19.993Z,17.20
2022-10-22T18:37:46.655Z,13.77
2022-10-22T18:40:14.765Z,10.97
2022-10-22T18:42:41.912Z,11.17
2022-10-22T18:45:09.108Z,10.30
2022-10-22T18:47:39.876Z,11.13
2022-10-22T18:50:06.827Z,10.93
2022-10-22T18:52:33.694Z,9.73
2022-10-22T18:55:00.341Z,10.20
2022-10-22T18:57:26.966Z,9.83
2022-10-22T18:59:55.809Z,9.93
2022-10-22T19:02:25.233Z,9.70
2022-10-22T19:04:51.846Z,12.03
2022-10-22T19:07:18.415Z,11.63
2022-10-22T19:09:45.583Z,10.63
2022-10-22T19:12:15.006Z,9.53
2022-10-22T19:14:42.706Z,6.80
2022-10-22T19:17:09.357Z,8.20
2022-10-22T19:19:35.987Z,4.80
2022-10-22T19:22:02.571Z,5.50
2022-10-22T19:24:29.283Z,5.20
2022-10-22T19:26:55.949Z,3.70
2022-10-22T19:29:22.592Z,4.47
2022-10-22T19:31:50.983Z,4.20
2022-10-22T19:34:18.305Z,4.70
2022-10-22T19:36:44.981Z,3.53
2022-10-22T19:39:15.057Z,3.40
2022-10-22T19:41:41.693Z,2.90
2022-10-22T19:44:09.640Z,2.93
2022-10-22T19:46:36.253Z,1.90
2022-10-22T19:49:03.476Z,1.50
2022-10-22T19:51:31.810Z,3.70
2022-10-22T19:54:06.927Z,30.83
2022-10-22T19:56:34.439Z,2.33
2022-10-22T19:59:01.072Z,2.20
2022-10-22T20:01:28.298Z,1.87
2022-10-22T20:03:54.986Z,2.70
2022-10-22T20:06:22.004Z,1.97
2022-10-22T20:08:51.037Z,1.27
2022-10-22T20:11:23.461Z,1.30
2022-10-22T20:13:52.273Z,1.53
2022-10-22T20:16:23.010Z,1.60
2022-10-22T20:18:50.301Z,1.30
2022-10-22T20:21:19.372Z,1.30
2022-10-22T20:23:47.136Z,1.10
2022-10-22T20:26:14.202Z,1.10
2022-10-22T20:28:40.886Z,1.03
2022-10-22T20:31:11.691Z,1.10
2022-10-22T20:33:38.420Z,1.30
2022-10-22T20:36:11.625Z,1.27
2022-10-22T20:38:38.244Z,1.40
2022-10-22T20:41:07.541Z,1.60
2022-10-22T20:43:34.230Z,1.43
2022-10-22T20:46:01.147Z,1.27
2022-10-22T20:48:31.231Z,1.53
2022-10-22T20:50:58.956Z,1.77
2022-10-22T20:53:25.801Z,2.20
2022-10-22T20:55:55.213Z,2.27
2022-10-22T20:58:24.545Z,2.93
2022-10-22T21:00:54.371Z,2.40
2022-10-22T21:03:20.996Z,1.80
2022-10-22T21:05:47.739Z,1.57
2022-10-22T21:08:17.424Z,1.53
2022-10-22T21:10:49.078Z,1.50
2022-10-22T21:13:16.547Z,1.60
2022-10-22T21:15:43.135Z,1.30
2022-10-22T21:18:09.799Z,1.70
2022-10-22T21:20:38.819Z,1.40
2022-10-22T21:23:05.607Z,1.50
2022-10-22T21:25:32.200Z,1.40
2022-10-22T21:27:58.849Z,1.40
2022-10-22T21:30:25.438Z,1.47
2022-10-22T21:32:52.070Z,1.40
2022-10-22T21:35:18.604Z,1.27
2022-10-22T21:37:45.153Z,1.10
2022-10-22T21:40:12.129Z,1.27
2022-10-22T21:42:38.721Z,1.10
2022-10-22T21:45:10.473Z,1.20
2022-10-22T21:47:40.147Z,1.20
2022-10-22T21:50:07.185Z,2.23
2022-10-22T21:52:33.837Z,4.23
2022-10-22T21:55:00.454Z,3.80
2022-10-22T21:57:27.298Z,2.80
2022-10-22T21:59:53.932Z,3.27
2022-10-22T22:04:47.232Z,5.03
2022-10-22T22:07:13.854Z,5.07
2022-10-22T22:09:40.448Z,5.67
2022-10-22T22:12:07.742Z,6.03
2022-10-22T22:14:34.416Z,7.57
2022-10-22T22:17:00.983Z,7.10
2022-10-22T22:19:27.613Z,6.93
2022-10-22T22:21:54.342Z,7.20
2022-10-22T22:24:20.939Z,7.13
2022-10-22T22:26:48.083Z,7.03
2022-10-22T22:29:14.737Z,6.97
2022-10-22T22:31:42.916Z,6.60
2022-10-22T22:46:11.307Z,5.30
2022-10-22T22:48:38.135Z,5.33
2022-10-22T22:51:06.065Z,5.27
2022-10-22T22:53:33.878Z,5.73
